sensor_id;sensor_type;location;lat;lon;timestamp;pressure;altitude;pressure_sealevel;temperature;humidity
77247;BME280;66279;42.820;23.374;2023-11-18T00:00:34;94981.03;;;14.64;63.66
77247;BME280;66279;42.820;23.374;2023-11-18T00:02:59;94994.44;;;14.69;64.91
77247;BME280;66279;42.820;23.374;2023-11-18T00:05:25;94992.28;;;14.66;64.67
77247;BME280;66279;42.820;23.374;2023-11-18T00:07:50;94980.34;;;14.74;64.79
77247;BME280;66279;42.820;23.374;2023-11-18T00:10:16;94981.91;;;14.70;64.97
77247;BME280;66279;42.820;23.374;2023-11-18T00:12:42;94974.72;;;14.70;63.58
77247;BME280;66279;42.820;23.374;2023-11-18T00:15:08;94976.28;;;14.66;64.57
77247;BME280;66279;42.820;23.374;2023-11-18T00:17:36;94984.16;;;14.78;64.76
77247;BME280;66279;42.820;23.374;2023-11-18T00:20:01;94970.25;;;14.76;64.40
77247;BME280;66279;42.820;23.374;2023-11-18T00:22:31;94986.16;;;14.66;64.53
77247;BME280;66279;42.820;23.374;2023-11-18T00:24:56;94998.47;;;14.72;64.28
77247;BME280;66279;42.820;23.374;2023-11-18T00:27:22;95000.13;;;14.56;64.40
77247;BME280;66279;42.820;23.374;2023-11-18T00:29:48;95013.38;;;14.73;64.20
77247;BME280;66279;42.820;23.374;2023-11-18T00:32:13;95012.03;;;14.70;63.89
77247;BME280;66279;42.820;23.374;2023-11-18T00:34:38;94997.28;;;14.63;63.75
77247;BME280;66279;42.820;23.374;2023-11-18T00:37:04;94977.28;;;14.60;63.81
77247;BME280;66279;42.820;23.374;2023-11-18T00:39:29;94977.56;;;14.42;64.52
77247;BME280;66279;42.820;23.374;2023-11-18T00:41:55;94979.47;;;14.24;65.57
77247;BME280;66279;42.820;23.374;2023-11-18T00:44:23;94981.63;;;14.05;66.06
77247;BME280;66279;42.820;23.374;2023-11-18T00:46:49;94984.75;;;13.80;67.08
77247;BME280;66279;42.820;23.374;2023-11-18T00:49:14;94984.97;;;13.79;67.19
77247;BME280;66279;42.820;23.374;2023-11-18T00:51:40;94975.50;;;13.49;68.42
77247;BME280;66279;42.820;23.374;2023-11-18T00:54:07;94991.69;;;13.48;68.26
77247;BME280;66279;42.820;23.374;2023-11-18T00:56:32;94982.50;;;13.39;68.78
77247;BME280;66279;42.820;23.374;2023-11-18T00:58:58;94989.75;;;13.43;68.56
77247;BME280;66279;42.820;23.374;2023-11-18T01:01:24;94998.13;;;13.35;69.18
77247;BME280;66279;42.820;23.374;2023-11-18T01:03:49;94999.13;;;13.17;69.53
77247;BME280;66279;42.820;23.374;2023-11-18T01:06:15;95011.50;;;13.11;69.86
77247;BME280;66279;42.820;23.374;2023-11-18T01:08:43;95017.38;;;12.97;70.44
77247;BME280;66279;42.820;23.374;2023-11-18T01:11:09;95018.03;;;13.04;70.50
77247;BME280;66279;42.820;23.374;2023-11-18T01:13:35;95017.06;;;13.10;70.15
77247;BME280;66279;42.820;23.374;2023-11-18T01:16:00;95019.88;;;13.03;70.28
77247;BME280;66279;42.820;23.374;2023-11-18T01:18:27;95028.75;;;12.80;71.39
77247;BME280;66279;42.820;23.374;2023-11-18T01:20:53;95029.59;;;12.81;71.00
77247;BME280;66279;42.820;23.374;2023-11-18T01:23:18;95033.13;;;12.86;70.80
77247;BME280;66279;42.820;23.374;2023-11-18T01:25:43;95034.00;;;12.63;72.10
77247;BME280;66279;42.820;23.374;2023-11-18T01:28:09;95031.31;;;12.75;71.27
77247;BME280;66279;42.820;23.374;2023-11-18T01:30:34;95040.56;;;13.01;70.00
77247;BME280;66279;42.820;23.374;2023-11-18T01:33:00;95035.84;;;13.03;70.18
77247;BME280;66279;42.820;23.374;2023-11-18T01:35:29;95030.22;;;12.59;71.89
77247;BME280;66279;42.820;23.374;2023-11-18T01:37:54;95030.34;;;12.53;72.04
77247;BME280;66279;42.820;23.374;2023-11-18T01:40:20;95025.28;;;12.51;72.35
77247;BME280;66279;42.820;23.374;2023-11-18T01:42:46;95029.97;;;12.61;72.08
77247;BME280;66279;42.820;23.374;2023-11-18T01:45:15;95045.72;;;12.51;72.39
77247;BME280;66279;42.820;23.374;2023-11-18T01:47:43;95030.03;;;12.37;72.67
77247;BME280;66279;42.820;23.374;2023-11-18T01:50:10;95031.78;;;12.72;71.39
77247;BME280;66279;42.820;23.374;2023-11-18T01:52:38;95038.59;;;12.68;71.02
77247;BME280;66279;42.820;23.374;2023-11-18T01:55:05;95035.53;;;12.59;71.61
77247;BME280;66279;42.820;23.374;2023-11-18T01:57:35;95025.38;;;12.56;71.90
77247;BME280;66279;42.820;23.374;2023-11-18T02:00:02;95025.97;;;12.47;72.16
77247;BME280;66279;42.820;23.374;2023-11-18T02:02:32;95023.31;;;12.47;72.00
77247;BME280;66279;42.820;23.374;2023-11-18T02:05:01;95025.75;;;12.77;70.95
77247;BME280;66279;42.820;23.374;2023-11-18T02:07:28;95003.00;;;12.40;71.45
77247;BME280;66279;42.820;23.374;2023-11-18T02:09:54;95030.38;;;12.41;71.99
77247;BME280;66279;42.820;23.374;2023-11-18T02:14:55;95032.00;;;12.42;72.22
77247;BME280;66279;42.820;23.374;2023-11-18T02:17:25;95037.31;;;12.18;73.15
77247;BME280;66279;42.820;23.374;2023-11-18T02:19:56;95042.50;;;12.37;72.55
77247;BME280;66279;42.820;23.374;2023-11-18T02:22:22;95034.84;;;12.52;71.54
77247;BME280;66279;42.820;23.374;2023-11-18T02:24:47;95023.56;;;12.33;71.66
77247;BME280;66279;42.820;23.374;2023-11-18T02:27:13;95045.78;;;12.67;70.74
77247;BME280;66279;42.820;23.374;2023-11-18T02:29:41;95043.66;;;12.41;71.75
77247;BME280;66279;42.820;23.374;2023-11-18T02:32:49;95039.75;;;12.32;72.58
77247;BME280;66279;42.820;23.374;2023-11-18T02:35:20;95009.03;;;12.24;71.39
77247;BME280;66279;42.820;23.374;2023-11-18T02:37:50;95041.34;;;12.44;71.06
77247;BME280;66279;42.820;23.374;2023-11-18T02:40:20;95057.63;;;12.36;72.07
77247;BME280;66279;42.820;23.374;2023-11-18T02:42:50;95049.78;;;12.41;71.81
77247;BME280;66279;42.820;23.374;2023-11-18T02:45:19;95045.72;;;12.39;71.55
77247;BME280;66279;42.820;23.374;2023-11-18T02:47:46;95047.47;;;12.33;71.23
77247;BME280;66279;42.820;23.374;2023-11-18T02:50:12;95056.69;;;12.19;72.31
77247;BME280;66279;42.820;23.374;2023-11-18T02:52:39;95069.81;;;12.49;71.20
77247;BME280;66279;42.820;23.374;2023-11-18T02:55:08;95069.97;;;12.42;70.95
77247;BME280;66279;42.820;23.374;2023-11-18T02:57:38;95072.28;;;12.39;71.24
77247;BME280;66279;42.820;23.374;2023-11-18T03:00:07;95073.66;;;12.30;71.01
77247;BME280;66279;42.820;23.374;2023-11-18T03:02:45;95062.00;;;12.42;70.65
77247;BME280;66279;42.820;23.374;2023-11-18T03:05:13;95068.59;;;12.28;71.16
77247;BME280;66279;42.820;23.374;2023-11-18T03:07:58;95063.97;;;12.24;71.03
77247;BME280;66279;42.820;23.374;2023-11-18T03:10:23;95076.06;;;12.55;70.26
77247;BME280;66279;42.820;23.374;2023-11-18T03:12:50;95047.72;;;12.08;71.21
77247;BME280;66279;42.820;23.374;2023-11-18T03:15:16;95060.28;;;12.36;70.63
77247;BME280;66279;42.820;23.374;2023-11-18T03:17:48;95034.59;;;12.13;70.56
77247;BME280;66279;42.820;23.374;2023-11-18T03:20:19;95068.13;;;12.31;70.98
77247;BME280;66279;42.820;23.374;2023-11-18T03:22:45;95068.59;;;12.28;70.86
77247;BME280;66279;42.820;23.374;2023-11-18T03:25:11;95071.34;;;12.33;70.70
77247;BME280;66279;42.820;23.374;2023-11-18T03:27:38;95083.81;;;12.21;71.02
77247;BME280;66279;42.820;23.374;2023-11-18T03:30:04;95071.38;;;12.21;70.65
77247;BME280;66279;42.820;23.374;2023-11-18T03:32:31;95081.28;;;12.14;70.87
77247;BME280;66279;42.820;23.374;2023-11-18T03:34:57;95095.81;;;12.47;70.06
77247;BME280;66279;42.820;23.374;2023-11-18T03:37:24;95080.84;;;12.29;70.17
77247;BME280;66279;42.820;23.374;2023-11-18T03:39:51;95076.31;;;12.06;70.77
77247;BME280;66279;42.820;23.374;2023-11-18T03:42:17;95078.78;;;12.19;70.74
77247;BME280;66279;42.820;23.374;2023-11-18T03:44:42;95077.50;;;12.10;71.17
77247;BME280;66279;42.820;23.374;2023-11-18T03:47:08;95070.69;;;12.14;70.78
77247;BME280;66279;42.820;23.374;2023-11-18T03:49:33;95070.91;;;12.13;70.68
77247;BME280;66279;42.820;23.374;2023-11-18T03:51:59;95083.69;;;12.16;70.63
77247;BME280;66279;42.820;23.374;2023-11-18T03:54:24;95104.81;;;11.99;71.27
77247;BME280;66279;42.820;23.374;2023-11-18T03:56:50;95106.44;;;12.00;71.18
77247;BME280;66279;42.820;23.374;2023-11-18T03:59:15;95117.66;;;12.14;70.33
77247;BME280;66279;42.820;23.374;2023-11-18T04:01:41;95106.56;;;12.17;70.12
77247;BME280;66279;42.820;23.374;2023-11-18T04:04:06;95109.78;;;12.19;69.89
77247;BME280;66279;42.820;23.374;2023-11-18T04:06:32;95111.97;;;12.34;69.73
77247;BME280;66279;42.820;23.374;2023-11-18T04:08:57;95108.84;;;12.37;69.51
77247;BME280;66279;42.820;23.374;2023-11-18T04:11:23;95112.09;;;12.39;69.41
77247;BME280;66279;42.820;23.374;2023-11-18T04:13:48;95114.41;;;12.12;70.43
77247;BME280;66279;42.820;23.374;2023-11-18T04:16:14;95116.25;;;12.11;70.45
77247;BME280;66279;42.820;23.374;2023-11-18T04:18:44;95116.94;;;12.42;69.13
77247;BME280;66279;42.820;23.374;2023-11-18T04:21:11;95113.72;;;12.16;70.34
77247;BME280;66279;42.820;23.374;2023-11-18T04:23:39;95092.03;;;12.19;70.17
77247;BME280;66279;42.820;23.374;2023-11-18T04:26:05;95088.91;;;12.23;69.86
77247;BME280;66279;42.820;23.374;2023-11-18T04:28:32;95089.47;;;12.25;69.84
77247;BME280;66279;42.820;23.374;2023-11-18T04:30:58;95095.25;;;12.21;69.76
77247;BME280;66279;42.820;23.374;2023-11-18T04:33:24;95096.28;;;12.32;69.44
77247;BME280;66279;42.820;23.374;2023-11-18T04:35:50;95101.38;;;12.10;70.10
77247;BME280;66279;42.820;23.374;2023-11-18T04:38:16;95103.13;;;12.16;69.88
77247;BME280;66279;42.820;23.374;2023-11-18T04:40:41;95106.22;;;12.13;69.51
77247;BME280;66279;42.820;23.374;2023-11-18T04:43:10;95102.53;;;12.26;69.30
77247;BME280;66279;42.820;23.374;2023-11-18T04:45:36;95091.44;;;12.29;68.73
77247;BME280;66279;42.820;23.374;2023-11-18T04:48:02;95094.09;;;12.06;69.48
77247;BME280;66279;42.820;23.374;2023-11-18T04:50:29;95087.06;;;12.00;69.75
77247;BME280;66279;42.820;23.374;2023-11-18T04:52:55;95086.38;;;12.04;68.89
77247;BME280;66279;42.820;23.374;2023-11-18T04:55:21;95087.41;;;12.03;68.87
77247;BME280;66279;42.820;23.374;2023-11-18T04:57:46;95085.69;;;12.09;68.91
77247;BME280;66279;42.820;23.374;2023-11-18T05:00:12;95091.09;;;12.02;68.42
77247;BME280;66279;42.820;23.374;2023-11-18T05:02:42;95091.22;;;12.07;68.31
77247;BME280;66279;42.820;23.374;2023-11-18T05:05:08;95092.72;;;12.03;68.61
77247;BME280;66279;42.820;23.374;2023-11-18T05:07:35;95094.44;;;11.86;69.26
77247;BME280;66279;42.820;23.374;2023-11-18T05:10:01;95094.09;;;12.06;68.25
77247;BME280;66279;42.820;23.374;2023-11-18T05:12:28;95091.56;;;12.11;67.92
77247;BME280;66279;42.820;23.374;2023-11-18T05:14:57;95106.09;;;11.96;68.28
77247;BME280;66279;42.820;23.374;2023-11-18T05:17:23;95108.59;;;11.91;69.23
77247;BME280;66279;42.820;23.374;2023-11-18T05:19:48;95113.13;;;12.14;68.72
77247;BME280;66279;42.820;23.374;2023-11-18T05:22:14;95108.53;;;11.98;68.50
77247;BME280;66279;42.820;23.374;2023-11-18T05:24:39;95112.66;;;11.94;69.04
77247;BME280;66279;42.820;23.374;2023-11-18T05:27:05;95114.28;;;12.07;68.79
77247;BME280;66279;42.820;23.374;2023-11-18T05:29:31;95098.72;;;11.98;68.20
77247;BME280;66279;42.820;23.374;2023-11-18T05:31:57;95111.75;;;12.12;68.18
77247;BME280;66279;42.820;23.374;2023-11-18T05:34:23;95098.91;;;11.85;68.87
77247;BME280;66279;42.820;23.374;2023-11-18T05:36:50;95095.38;;;12.03;67.93
77247;BME280;66279;42.820;23.374;2023-11-18T05:39:20;95106.78;;;12.04;68.22
77247;BME280;66279;42.820;23.374;2023-11-18T05:41:46;95098.94;;;11.97;68.48
77247;BME280;66279;42.820;23.374;2023-11-18T05:44:15;95113.47;;;11.94;68.60
77247;BME280;66279;42.820;23.374;2023-11-18T05:46:44;95114.84;;;11.85;68.55
77247;BME280;66279;42.820;23.374;2023-11-18T05:49:12;95113.75;;;11.74;69.43
77247;BME280;66279;42.820;23.374;2023-11-18T05:51:39;95110.00;;;11.94;68.57
77247;BME280;66279;42.820;23.374;2023-11-18T05:54:08;95115.72;;;11.79;69.63
77247;BME280;66279;42.820;23.374;2023-11-18T05:56:34;95113.56;;;11.88;69.13
77247;BME280;66279;42.820;23.374;2023-11-18T05:58:59;95115.03;;;11.84;68.59
77247;BME280;66279;42.820;23.374;2023-11-18T06:01:29;95125.81;;;11.89;69.18
77247;BME280;66279;42.820;23.374;2023-11-18T06:03:55;95122.91;;;11.90;68.54
77247;BME280;66279;42.820;23.374;2023-11-18T06:06:22;95125.00;;;12.00;68.84
77247;BME280;66279;42.820;23.374;2023-11-18T06:08:47;95127.16;;;11.80;69.36
77247;BME280;66279;42.820;23.374;2023-11-18T06:11:14;95123.50;;;11.92;69.19
77247;BME280;66279;42.820;23.374;2023-11-18T06:13:44;95119.94;;;11.98;68.63
77247;BME280;66279;42.820;23.374;2023-11-18T06:18:44;95122.66;;;11.80;69.48
77247;BME280;66279;42.820;23.374;2023-11-18T06:21:13;95123.16;;;11.89;68.75
77247;BME280;66279;42.820;23.374;2023-11-18T06:23:40;95119.59;;;11.95;68.51
77247;BME280;66279;42.820;23.374;2023-11-18T06:26:06;95111.59;;;11.83;68.75
77247;BME280;66279;42.820;23.374;2023-11-18T06:28:31;95126.28;;;11.86;69.50
77247;BME280;66279;42.820;23.374;2023-11-18T06:30:59;95132.88;;;11.95;68.45
77247;BME280;66279;42.820;23.374;2023-11-18T06:33:25;95138.69;;;11.85;69.68
77247;BME280;66279;42.820;23.374;2023-11-18T06:35:55;95133.22;;;11.68;69.93
77247;BME280;66279;42.820;23.374;2023-11-18T06:38:21;95144.44;;;11.70;69.90
77247;BME280;66279;42.820;23.374;2023-11-18T06:40:47;95149.38;;;11.67;69.69
77247;BME280;66279;42.820;23.374;2023-11-18T06:43:17;95143.00;;;11.86;69.05
77247;BME280;66279;42.820;23.374;2023-11-18T06:45:44;95156.16;;;11.93;68.72
77247;BME280;66279;42.820;23.374;2023-11-18T06:48:09;95135.91;;;11.80;68.55
77247;BME280;66279;42.820;23.374;2023-11-18T06:50:35;95151.03;;;11.80;68.40
77247;BME280;66279;42.820;23.374;2023-11-18T06:53:01;95136.19;;;11.60;67.66
77247;BME280;66279;42.820;23.374;2023-11-18T06:55:26;95152.63;;;11.81;68.33
77247;BME280;66279;42.820;23.374;2023-11-18T06:57:52;95164.00;;;11.69;68.90
77247;BME280;66279;42.820;23.374;2023-11-18T07:00:19;95166.00;;;11.74;68.79
77247;BME280;66279;42.820;23.374;2023-11-18T07:02:47;95172.91;;;11.75;68.27
77247;BME280;66279;42.820;23.374;2023-11-18T07:05:12;95167.00;;;11.61;68.57
77247;BME280;66279;42.820;23.374;2023-11-18T07:07:40;95172.63;;;11.53;69.25
77247;BME280;66279;42.820;23.374;2023-11-18T07:10:06;95167.81;;;11.62;69.17
77247;BME280;66279;42.820;23.374;2023-11-18T07:12:33;95175.97;;;11.60;69.40
77247;BME280;66279;42.820;23.374;2023-11-18T07:14:59;95170.81;;;11.65;69.21
77247;BME280;66279;42.820;23.374;2023-11-18T07:17:26;95178.09;;;11.70;68.95
77247;BME280;66279;42.820;23.374;2023-11-18T07:19:51;95173.59;;;11.70;68.93
77247;BME280;66279;42.820;23.374;2023-11-18T07:22:16;95177.91;;;11.83;67.99
77247;BME280;66279;42.820;23.374;2023-11-18T07:24:42;95176.44;;;11.87;68.53
77247;BME280;66279;42.820;23.374;2023-11-18T07:27:08;95187.88;;;11.69;69.64
77247;BME280;66279;42.820;23.374;2023-11-18T07:29:36;95187.63;;;11.59;69.22
77247;BME280;66279;42.820;23.374;2023-11-18T07:32:02;95184.22;;;11.82;67.92
77247;BME280;66279;42.820;23.374;2023-11-18T07:34:31;95183.63;;;11.68;68.23
77247;BME280;66279;42.820;23.374;2023-11-18T07:36:58;95179.53;;;11.54;69.10
77247;BME280;66279;42.820;23.374;2023-11-18T07:39:24;95180.31;;;11.73;68.80
77247;BME280;66279;42.820;23.374;2023-11-18T07:41:49;95179.47;;;11.61;69.68
77247;BME280;66279;42.820;23.374;2023-11-18T07:44:15;95178.56;;;11.67;69.17
77247;BME280;66279;42.820;23.374;2023-11-18T07:46:41;95176.72;;;11.79;68.72
77247;BME280;66279;42.820;23.374;2023-11-18T07:49:08;95173.56;;;11.59;68.85
77247;BME280;66279;42.820;23.374;2023-11-18T07:51:34;95177.75;;;11.78;68.50
77247;BME280;66279;42.820;23.374;2023-11-18T07:53:59;95180.97;;;11.68;69.07
77247;BME280;66279;42.820;23.374;2023-11-18T07:56:25;95180.75;;;11.70;68.29
77247;BME280;66279;42.820;23.374;2023-11-18T07:58:52;95173.38;;;11.42;70.06
77247;BME280;66279;42.820;23.374;2023-11-18T08:01:17;95184.03;;;11.53;69.64
77247;BME280;66279;42.820;23.374;2023-11-18T08:03:43;95164.78;;;11.28;70.77
77247;BME280;66279;42.820;23.374;2023-11-18T08:06:10;95184.75;;;11.61;69.13
77247;BME280;66279;42.820;23.374;2023-11-18T08:08:37;95193.63;;;11.55;69.05
77247;BME280;66279;42.820;23.374;2023-11-18T08:11:04;95192.38;;;11.39;70.08
77247;BME280;66279;42.820;23.374;2023-11-18T08:13:29;95198.63;;;11.44;69.59
77247;BME280;66279;42.820;23.374;2023-11-18T08:15:56;95188.03;;;11.74;68.30
77247;BME280;66279;42.820;23.374;2023-11-18T08:18:23;95190.00;;;11.49;68.84
77247;BME280;66279;42.820;23.374;2023-11-18T08:20:49;95190.13;;;11.54;68.73
77247;BME280;66279;42.820;23.374;2023-11-18T08:23:15;95193.38;;;11.56;69.00
77247;BME280;66279;42.820;23.374;2023-11-18T08:25:40;95184.31;;;11.64;68.19
77247;BME280;66279;42.820;23.374;2023-11-18T08:28:07;95180.22;;;11.49;68.66
77247;BME280;66279;42.820;23.374;2023-11-18T08:30:33;95194.28;;;11.50;69.02
77247;BME280;66279;42.820;23.374;2023-11-18T08:32:59;95190.91;;;11.43;69.79
77247;BME280;66279;42.820;23.374;2023-11-18T08:35:25;95195.06;;;11.50;69.26
77247;BME280;66279;42.820;23.374;2023-11-18T08:37:51;95194.31;;;11.62;68.10
77247;BME280;66279;42.820;23.374;2023-11-18T08:40:17;95193.28;;;11.63;68.05
77247;BME280;66279;42.820;23.374;2023-11-18T08:42:51;95202.94;;;11.57;68.77
77247;BME280;66279;42.820;23.374;2023-11-18T08:45:23;95200.88;;;11.59;68.21
77247;BME280;66279;42.820;23.374;2023-11-18T08:47:56;95205.88;;;11.67;68.02
77247;BME280;66279;42.820;23.374;2023-11-18T08:50:22;95200.56;;;11.37;69.52
77247;BME280;66279;42.820;23.374;2023-11-18T08:52:52;95196.72;;;11.51;68.09
77247;BME280;66279;42.820;23.374;2023-11-18T08:55:27;95202.94;;;11.27;68.84
77247;BME280;66279;42.820;23.374;2023-11-18T08:58:07;95198.56;;;11.33;68.98
77247;BME280;66279;42.820;23.374;2023-11-18T09:00:49;95203.41;;;11.36;69.23
77247;BME280;66279;42.820;23.374;2023-11-18T09:03:23;95198.81;;;11.31;69.32
77247;BME280;66279;42.820;23.374;2023-11-18T09:06:01;95207.63;;;11.43;68.67
77247;BME280;66279;42.820;23.374;2023-11-18T09:08:35;95186.66;;;11.23;69.21
77247;BME280;66279;42.820;23.374;2023-11-18T09:11:14;95200.28;;;11.27;69.80
77247;BME280;66279;42.820;23.374;2023-11-18T09:13:42;95199.59;;;11.32;69.18
77247;BME280;66279;42.820;23.374;2023-11-18T09:16:08;95200.03;;;11.47;68.66
77247;BME280;66279;42.820;23.374;2023-11-18T09:18:37;95203.06;;;11.32;68.80
77247;BME280;66279;42.820;23.374;2023-11-18T09:21:05;95199.06;;;11.41;68.26
77247;BME280;66279;42.820;23.374;2023-11-18T09:23:32;95201.31;;;11.26;69.16
77247;BME280;66279;42.820;23.374;2023-11-18T09:26:00;95202.44;;;11.18;69.12
77247;BME280;66279;42.820;23.374;2023-11-18T09:28:27;95195.38;;;11.12;69.00
77247;BME280;66279;42.820;23.374;2023-11-18T09:30:56;95197.31;;;11.35;68.23
77247;BME280;66279;42.820;23.374;2023-11-18T09:33:29;95202.63;;;11.35;68.61
77247;BME280;66279;42.820;23.374;2023-11-18T09:36:07;95197.19;;;11.30;68.89
77247;BME280;66279;42.820;23.374;2023-11-18T09:38:34;95205.94;;;11.31;68.69
77247;BME280;66279;42.820;23.374;2023-11-18T09:41:02;95205.81;;;11.07;70.10
77247;BME280;66279;42.820;23.374;2023-11-18T09:43:30;95190.19;;;11.17;69.55
77247;BME280;66279;42.820;23.374;2023-11-18T09:46:05;95193.22;;;11.21;69.23
77247;BME280;66279;42.820;23.374;2023-11-18T09:49:01;95204.41;;;11.23;68.78
77247;BME280;66279;42.820;23.374;2023-11-18T09:51:41;95188.06;;;11.07;68.20
77247;BME280;66279;42.820;23.374;2023-11-18T09:57:08;95169.97;;;11.04;68.55
77247;BME280;66279;42.820;23.374;2023-11-18T10:00:16;95195.44;;;11.24;68.26
77247;BME280;66279;42.820;23.374;2023-11-18T10:02:51;95196.16;;;11.31;68.74
77247;BME280;66279;42.820;23.374;2023-11-18T10:05:19;95201.91;;;11.28;68.03
77247;BME280;66279;42.820;23.374;2023-11-18T10:07:46;95199.00;;;11.29;68.19
77247;BME280;66279;42.820;23.374;2023-11-18T10:10:12;95191.91;;;11.30;67.88
77247;BME280;66279;42.820;23.374;2023-11-18T10:12:44;95165.13;;;11.01;68.13
77247;BME280;66279;42.820;23.374;2023-11-18T10:15:14;95192.47;;;11.32;68.38
77247;BME280;66279;42.820;23.374;2023-11-18T10:17:45;95188.94;;;11.20;68.54
77247;BME280;66279;42.820;23.374;2023-11-18T10:20:48;95186.38;;;11.13;69.09
77247;BME280;66279;42.820;23.374;2023-11-18T10:23:20;95193.53;;;11.13;68.87
77247;BME280;66279;42.820;23.374;2023-11-18T10:25:56;95183.66;;;11.01;69.38
77247;BME280;66279;42.820;23.374;2023-11-18T10:28:28;95188.13;;;11.19;68.70
77247;BME280;66279;42.820;23.374;2023-11-18T10:30:55;95187.78;;;11.16;68.79
77247;BME280;66279;42.820;23.374;2023-11-18T10:33:24;95189.63;;;11.15;68.67
77247;BME280;66279;42.820;23.374;2023-11-18T10:35:55;95191.03;;;10.99;69.49
77247;BME280;66279;42.820;23.374;2023-11-18T10:38:22;95190.72;;;11.07;68.47
77247;BME280;66279;42.820;23.374;2023-11-18T10:40:54;95182.06;;;11.00;69.08
77247;BME280;66279;42.820;23.374;2023-11-18T10:43:23;95168.53;;;10.90;69.55
77247;BME280;66279;42.820;23.374;2023-11-18T10:46:10;95175.28;;;11.04;67.95
77247;BME280;66279;42.820;23.374;2023-11-18T10:48:49;95186.31;;;11.01;68.65
77247;BME280;66279;42.820;23.374;2023-11-18T10:51:19;95174.56;;;10.97;68.50
77247;BME280;66279;42.820;23.374;2023-11-18T10:53:50;95179.84;;;10.97;69.49
77247;BME280;66279;42.820;23.374;2023-11-18T10:56:25;95177.47;;;10.89;69.28
77247;BME280;66279;42.820;23.374;2023-11-18T10:58:58;95165.47;;;11.05;67.19
77247;BME280;66279;42.820;23.374;2023-11-18T11:01:35;95149.59;;;11.05;67.89
77247;BME280;66279;42.820;23.374;2023-11-18T11:04:08;95152.75;;;10.77;69.11
77247;BME280;66279;42.820;23.374;2023-11-18T11:06:40;95143.50;;;10.86;69.13
77247;BME280;66279;42.820;23.374;2023-11-18T11:09:07;95151.00;;;10.71;69.18
77247;BME280;66279;42.820;23.374;2023-11-18T11:11:49;95156.75;;;10.86;68.56
77247;BME280;66279;42.820;23.374;2023-11-18T11:14:15;95158.28;;;10.94;67.75
77247;BME280;66279;42.820;23.374;2023-11-18T11:16:47;95147.47;;;10.95;68.23
77247;BME280;66279;42.820;23.374;2023-11-18T11:22:04;95161.13;;;11.11;67.20
77247;BME280;66279;42.820;23.374;2023-11-18T11:25:20;95153.28;;;11.04;67.16
77247;BME280;66279;42.820;23.374;2023-11-18T11:27:57;95144.31;;;10.87;68.32
77247;BME280;66279;42.820;23.374;2023-11-18T11:30:43;95150.19;;;10.89;69.03
77247;BME280;66279;42.820;23.374;2023-11-18T11:33:16;95157.75;;;11.03;70.39
77247;BME280;66279;42.820;23.374;2023-11-18T11:35:48;95152.88;;;11.19;68.98
77247;BME280;66279;42.820;23.374;2023-11-18T11:38:22;95146.09;;;11.23;68.58
77247;BME280;66279;42.820;23.374;2023-11-18T11:40:49;95152.91;;;11.00;69.03
77247;BME280;66279;42.820;23.374;2023-11-18T11:43:18;95148.03;;;11.16;67.89
77247;BME280;66279;42.820;23.374;2023-11-18T11:45:50;95145.75;;;11.19;67.71
77247;BME280;66279;42.820;23.374;2023-11-18T11:48:17;95139.91;;;11.29;67.19
77247;BME280;66279;42.820;23.374;2023-11-18T11:51:00;95134.25;;;11.25;67.39
77247;BME280;66279;42.820;23.374;2023-11-18T11:53:35;95128.50;;;11.28;67.13
77247;BME280;66279;42.820;23.374;2023-11-18T11:56:11;95123.47;;;11.39;66.20
77247;BME280;66279;42.820;23.374;2023-11-18T11:58:41;95122.78;;;11.43;65.40
77247;BME280;66279;42.820;23.374;2023-11-18T12:01:25;95122.69;;;11.20;67.14
77247;BME280;66279;42.820;23.374;2023-11-18T12:03:56;95129.03;;;11.19;66.45
77247;BME280;66279;42.820;23.374;2023-11-18T12:06:26;95132.44;;;11.38;66.12
77247;BME280;66279;42.820;23.374;2023-11-18T12:08:56;95132.09;;;11.34;66.02
77247;BME280;66279;42.820;23.374;2023-11-18T12:11:21;95138.84;;;11.48;66.37
77247;BME280;66279;42.820;23.374;2023-11-18T12:14:06;95103.09;;;11.09;66.68
77247;BME280;66279;42.820;23.374;2023-11-18T12:16:58;95131.38;;;11.27;66.70
77247;BME280;66279;42.820;23.374;2023-11-18T12:19:34;95118.53;;;11.12;66.67
77247;BME280;66279;42.820;23.374;2023-11-18T12:22:22;95144.19;;;11.30;66.88
77247;BME280;66279;42.820;23.374;2023-11-18T12:27:42;95149.00;;;11.21;67.23
77247;BME280;66279;42.820;23.374;2023-11-18T12:35:29;95145.09;;;11.24;59.88
77247;BME280;66279;42.820;23.374;2023-11-18T12:41:34;95168.63;;;11.14;61.22
77247;BME280;66279;42.820;23.374;2023-11-18T12:46:51;95140.47;;;11.01;62.06
77247;BME280;66279;42.820;23.374;2023-11-18T12:49:24;95167.50;;;10.91;63.39
77247;BME280;66279;42.820;23.374;2023-11-18T12:51:54;95166.16;;;11.00;62.66
77247;BME280;66279;42.820;23.374;2023-11-18T12:54:23;95169.88;;;11.11;62.46
77247;BME280;66279;42.820;23.374;2023-11-18T12:56:52;95156.38;;;11.01;62.90
77247;BME280;66279;42.820;23.374;2023-11-18T12:59:19;95161.59;;;10.89;62.84
77247;BME280;66279;42.820;23.374;2023-11-18T13:01:52;95174.25;;;11.05;62.86
77247;BME280;66279;42.820;23.374;2023-11-18T13:04:24;95170.41;;;11.01;63.21
77247;BME280;66279;42.820;23.374;2023-11-18T13:06:50;95175.34;;;10.98;63.23
77247;BME280;66279;42.820;23.374;2023-11-18T13:09:17;95179.69;;;11.11;63.16
77247;BME280;66279;42.820;23.374;2023-11-18T13:11:54;95189.13;;;11.06;63.28
77247;BME280;66279;42.820;23.374;2023-11-18T13:14:31;95195.13;;;10.95;63.50
77247;BME280;66279;42.820;23.374;2023-11-18T13:17:08;95192.66;;;10.82;64.04
77247;BME280;66279;42.820;23.374;2023-11-18T13:19:34;95199.47;;;10.90;63.53
77247;BME280;66279;42.820;23.374;2023-11-18T13:22:11;95208.97;;;10.97;64.20
77247;BME280;66279;42.820;23.374;2023-11-18T13:24:37;95216.19;;;10.90;63.80